createdAt,value
2023-04-27T00:01:34.680Z,4.73
2023-04-27T00:04:01.783Z,8.53
2023-04-27T00:06:28.456Z,5.30
2023-04-27T00:08:54.852Z,5.90
2023-04-27T00:11:21.253Z,6.07
2023-04-27T00:13:48.375Z,11.20
2023-04-27T00:16:14.739Z,9.47
2023-04-27T00:18:41.566Z,6.43
2023-04-27T00:21:09.021Z,5.87
2023-04-27T00:23:35.905Z,6.13
2023-04-27T00:26:02.909Z,10.00
2023-04-27T00:28:29.288Z,7.73
2023-04-27T00:30:55.952Z,9.13
2023-04-27T00:33:22.321Z,6.57
2023-04-27T00:35:48.669Z,7.73
2023-04-27T00:38:15.079Z,5.37
2023-04-27T00:40:41.443Z,7.83
2023-04-27T00:43:07.826Z,6.63
2023-04-27T00:45:41.739Z,8.20
2023-04-27T00:48:08.184Z,5.80
2023-04-27T00:50:34.918Z,7.50
2023-04-27T00:53:01.980Z,10.13
2023-04-27T00:55:28.488Z,8.00
2023-04-27T00:57:54.835Z,5.93
2023-04-27T01:00:21.422Z,8.17
2023-04-27T01:02:49.240Z,5.43
2023-04-27T01:05:15.848Z,5.67
2023-04-27T01:07:42.246Z,6.70
2023-04-27T01:10:09.069Z,5.03
2023-04-27T01:12:35.632Z,8.10
2023-04-27T01:15:02.006Z,6.70
2023-04-27T01:17:28.424Z,4.97
2023-04-27T01:19:56.664Z,9.40
2023-04-27T01:22:23.082Z,9.13
2023-04-27T01:24:49.434Z,12.93
2023-04-27T01:27:15.787Z,8.80
2023-04-27T01:29:43.940Z,6.33
2023-04-27T01:32:10.515Z,7.07
2023-04-27T01:34:36.918Z,11.27
2023-04-27T01:37:03.850Z,7.47
2023-04-27T01:39:30.212Z,6.17
2023-04-27T01:41:58.370Z,5.00
2023-04-27T01:44:25.078Z,7.80
2023-04-27T01:46:51.568Z,6.93
2023-04-27T01:49:17.953Z,6.83
2023-04-27T01:51:44.314Z,9.83
2023-04-27T01:54:10.673Z,10.87
2023-04-27T01:56:37.040Z,10.40
2023-04-27T01:59:03.453Z,5.40
2023-04-27T02:01:31.364Z,9.90
2023-04-27T02:03:57.948Z,8.03
2023-04-27T02:06:24.459Z,7.90
2023-04-27T02:08:50.816Z,6.27
2023-04-27T07:55:43.754Z,9.27
2023-04-27T07:58:10.485Z,6.17
2023-04-27T08:00:37.314Z,6.43
2023-04-27T08:03:03.910Z,8.03
2023-04-27T08:05:31.250Z,6.17
2023-04-27T08:07:58.392Z,7.00
2023-04-27T08:10:25.198Z,6.37
2023-04-27T08:12:51.766Z,6.60
2023-04-27T08:15:18.157Z,5.60
2023-04-27T08:17:44.576Z,8.10
2023-04-27T08:20:11.723Z,8.27
2023-04-27T08:22:39.266Z,12.73
2023-04-27T08:25:07.242Z,8.37
2023-04-27T08:27:34.526Z,6.27
2023-04-27T08:30:01.614Z,5.70
2023-04-27T08:32:28.372Z,10.20
2023-04-27T08:34:54.760Z,9.53
2023-04-27T08:37:21.780Z,5.80
2023-04-27T08:39:48.416Z,9.47
2023-04-27T08:42:15.082Z,9.47
2023-04-27T08:44:42.087Z,8.10
2023-04-27T08:47:09.234Z,11.77
2023-04-27T08:49:38.462Z,8.87
2023-04-27T08:52:12.104Z,7.57
2023-04-27T08:54:38.886Z,7.93
2023-04-27T08:57:15.722Z,8.73
2023-04-27T08:59:44.371Z,8.20
2023-04-27T09:02:21.070Z,5.37
2023-04-27T09:04:47.718Z,6.67
2023-04-27T09:07:18.263Z,8.83
2023-04-27T09:09:45.326Z,7.93
2023-04-27T09:12:18.866Z,6.97
2023-04-27T09:14:59.476Z,7.60
2023-04-27T09:17:30.420Z,7.50
2023-04-27T09:20:13.117Z,4.90
2023-04-27T09:22:51.775Z,5.97
2023-04-27T09:25:25.286Z,3.97
2023-04-27T09:27:51.691Z,6.37
2023-04-27T09:30:18.869Z,6.27
2023-04-27T09:32:53.533Z,6.93
2023-04-27T09:35:26.109Z,6.00
2023-04-27T09:37:53.675Z,6.23
2023-04-27T09:40:26.321Z,5.50
2023-04-27T09:42:52.807Z,6.43
2023-04-27T09:45:22.133Z,7.53
2023-04-27T09:47:48.551Z,4.10
2023-04-27T09:50:15.438Z,7.83
2023-04-27T09:52:42.197Z,5.20
2023-04-27T09:55:16.157Z,7.40
2023-04-27T09:57:55.663Z,6.40
2023-04-27T10:00:41.786Z,8.27
2023-04-27T10:03:33.110Z,7.13
2023-04-27T10:05:59.524Z,6.07
2023-04-27T10:08:26.697Z,5.27
2023-04-27T10:10:53.654Z,5.77
2023-04-27T10:13:22.920Z,6.57
2023-04-27T10:15:49.510Z,6.17
2023-04-27T10:18:26.871Z,5.47
2023-04-27T10:20:53.357Z,4.40
2023-04-27T10:23:24.917Z,5.43
2023-04-27T10:25:52.145Z,6.43
2023-04-27T10:28:18.935Z,7.73
2023-04-27T10:30:48.362Z,6.40
2023-04-27T10:33:21.686Z,5.97
2023-04-27T10:35:58.128Z,6.77
2023-04-27T10:38:29.841Z,7.73
2023-04-27T10:41:05.628Z,5.17
2023-04-27T10:43:35.062Z,7.57
2023-04-27T10:46:11.936Z,5.10
2023-04-27T10:48:43.419Z,6.27
2023-04-27T10:51:10.510Z,2.37
2023-04-27T10:53:37.644Z,4.20
2023-04-27T10:56:06.899Z,5.57
2023-04-27T10:58:45.250Z,3.70
2023-04-27T11:01:24.724Z,7.33
2023-04-27T11:03:58.777Z,5.90
2023-04-27T11:06:26.213Z,8.60
2023-04-27T11:08:52.558Z,7.10
2023-04-27T11:11:19.903Z,4.97
2023-04-27T11:13:49.327Z,4.77
2023-04-27T11:16:16.583Z,5.33
2023-04-27T11:18:43.000Z,3.57
2023-04-27T11:21:15.622Z,3.73
2023-04-27T11:23:42.783Z,5.20
2023-04-27T11:26:21.374Z,5.13
2023-04-27T11:29:17.490Z,3.07
2023-04-27T11:31:49.705Z,4.47
2023-04-27T11:34:19.528Z,4.33
2023-04-27T11:37:10.772Z,4.40
2023-04-27T11:39:45.271Z,4.53
2023-04-27T11:42:26.189Z,5.40
2023-04-27T11:44:56.815Z,3.87
2023-04-27T11:47:25.130Z,4.93
2023-04-27T11:49:52.874Z,7.33
2023-04-27T11:52:19.255Z,4.20
2023-04-27T11:54:50.682Z,7.47
2023-04-27T11:57:17.180Z,7.77
2023-04-27T11:59:43.551Z,4.83
2023-04-27T12:02:10.206Z,6.13
2023-04-27T12:04:37.240Z,8.30
2023-04-27T12:07:04.231Z,4.70
2023-04-27T12:09:30.576Z,6.00
2023-04-27T12:11:56.963Z,6.83
2023-04-27T12:14:24.697Z,4.07
2023-04-27T12:16:51.250Z,3.20
2023-04-27T12:19:17.661Z,3.40
2023-04-27T12:21:44.319Z,4.70
2023-04-27T12:24:10.909Z,4.03
2023-04-27T12:26:37.327Z,5.80
2023-04-27T12:29:04.334Z,3.77
2023-04-27T12:31:31.216Z,5.37
2023-04-27T12:33:57.652Z,4.03
2023-04-27T12:36:24.055Z,7.00
2023-04-27T12:38:50.440Z,2.83
2023-04-27T12:41:16.808Z,3.30
2023-04-27T12:43:43.588Z,3.97
2023-04-27T12:46:09.973Z,5.70
2023-04-27T12:48:36.464Z,5.33
2023-04-27T12:51:03.417Z,7.73
2023-04-27T12:53:29.784Z,5.43
2023-04-27T12:55:56.202Z,4.83
2023-04-27T12:58:22.816Z,5.07
2023-04-27T13:00:49.208Z,6.77
2023-04-27T13:03:15.683Z,4.70
2023-04-27T13:05:42.206Z,4.30
2023-04-27T13:08:09.029Z,5.67
2023-04-27T13:10:36.489Z,4.10
2023-04-27T13:13:03.220Z,3.37
2023-04-27T13:15:29.641Z,3.60
2023-04-27T13:17:58.170Z,4.97
2023-04-27T13:20:24.882Z,3.27
2023-04-27T13:22:51.252Z,6.53
2023-04-27T13:25:19.695Z,6.07
2023-04-27T13:27:46.213Z,5.30
2023-04-27T13:30:12.623Z,3.60
2023-04-27T13:32:39.080Z,5.27
2023-04-27T13:35:05.834Z,4.10
2023-04-27T13:37:32.472Z,4.97
2023-04-27T13:39:58.848Z,5.23
2023-04-27T13:42:29.311Z,2.97
2023-04-27T13:44:56.849Z,5.33
2023-04-27T13:47:23.452Z,2.10
2023-04-27T13:49:49.866Z,4.37
2023-04-27T13:52:16.314Z,3.13
2023-04-27T13:54:42.713Z,3.23
2023-04-27T13:57:09.070Z,3.83
2023-04-27T13:59:35.639Z,3.33
2023-04-27T14:02:03.172Z,3.53
2023-04-27T14:04:29.566Z,3.67
2023-04-27T14:06:56.133Z,4.70
2023-04-27T14:09:24.157Z,3.60
2023-04-27T14:11:56.259Z,4.23
2023-04-27T14:14:23.752Z,4.63
2023-04-27T14:16:53.045Z,5.70
2023-04-27T14:19:20.618Z,5.27
2023-04-27T14:21:48.050Z,3.77
2023-04-27T14:24:14.767Z,3.27
2023-04-27T14:26:43.976Z,5.03
2023-04-27T14:29:11.466Z,2.80
2023-04-27T14:31:39.307Z,5.03
2023-04-27T14:34:06.655Z,5.23
2023-04-27T14:36:33.391Z,4.60
2023-04-27T14:39:01.148Z,3.87
2023-04-27T14:41:28.342Z,3.93
2023-04-27T14:43:54.993Z,2.40
2023-04-27T14:46:21.688Z,7.27
2023-04-27T14:48:49.268Z,5.10
2023-04-27T14:51:16.654Z,2.37
2023-04-27T14:53:43.920Z,4.23
2023-04-27T14:56:10.731Z,4.50
2023-04-27T14:58:37.089Z,4.90
2023-04-27T15:01:06.550Z,4.60
2023-04-27T15:03:33.488Z,4.03
2023-04-27T15:06:01.411Z,3.73
2023-04-27T15:08:28.093Z,5.73
2023-04-27T15:10:59.734Z,3.87
2023-04-27T15:13:27.120Z,4.33
2023-04-27T15:15:58.010Z,5.90
2023-04-27T15:18:25.003Z,4.13
2023-04-27T15:20:55.468Z,7.67
2023-04-27T15:23:22.857Z,8.60
2023-04-27T15:25:50.406Z,4.33
2023-04-27T15:28:17.905Z,2.87
2023-04-27T15:30:45.133Z,3.93
2023-04-27T15:33:12.491Z,3.60
2023-04-27T15:35:40.302Z,4.33
2023-04-27T15:38:12.137Z,5.43
2023-04-27T15:40:39.784Z,5.03
2023-04-27T15:43:06.793Z,3.87
2023-04-27T15:45:33.337Z,2.87
2023-04-27T15:47:59.791Z,4.23
2023-04-27T15:50:26.171Z,5.13
2023-04-27T15:52:52.916Z,5.90
2023-04-27T15:55:19.557Z,5.33
2023-04-27T15:57:46.027Z,5.15
2023-04-27T16:00:13.240Z,3.85
2023-04-27T16:02:40.285Z,5.80
2023-04-27T16:05:08.119Z,4.05
2023-04-27T16:07:36.276Z,4.25
2023-04-27T16:10:03.596Z,5.07
2023-04-27T16:12:30.150Z,5.88
2023-04-27T16:14:59.406Z,6.35
2023-04-27T16:17:31.736Z,4.80
2023-04-27T16:19:58.517Z,5.68
2023-04-27T16:22:24.983Z,5.32
2023-04-27T16:24:51.557Z,4.60
2023-04-27T16:27:20.163Z,6.88
2023-04-27T16:29:47.251Z,4.05
2023-04-27T16:32:13.903Z,4.75
2023-04-27T16:34:40.415Z,5.43
2023-04-27T16:37:06.803Z,3.15
2023-04-27T16:39:36.171Z,3.45
2023-04-27T16:42:03.435Z,3.83
2023-04-27T16:44:30.168Z,3.38
2023-04-27T16:46:56.780Z,4.63
2023-04-27T16:49:23.324Z,2.80
2023-04-27T16:51:49.719Z,5.10
2023-04-27T16:54:16.517Z,3.95
2023-04-27T16:56:43.150Z,4.50
2023-04-27T16:59:12.182Z,7.10
2023-04-27T17:01:39.079Z,3.40
2023-04-27T17:04:05.841Z,6.97
2023-04-27T17:06:33.117Z,4.67
2023-04-27T17:08:59.515Z,6.47
2023-04-27T17:11:26.378Z,5.63
2023-04-27T17:13:53.034Z,4.47
2023-04-27T17:16:20.240Z,4.70
2023-04-27T17:18:47.071Z,6.00
2023-04-27T17:21:13.758Z,4.63
2023-04-27T17:23:46.425Z,7.23
2023-04-27T17:26:15.760Z,7.83
2023-04-27T17:28:42.174Z,4.10
2023-04-27T17:31:08.648Z,6.03
2023-04-27T17:33:35.308Z,4.60
2023-04-27T17:36:01.793Z,7.37
2023-04-27T17:38:28.215Z,7.53
2023-04-27T17:40:54.613Z,8.50
2023-04-27T17:43:21.032Z,7.00
2023-04-27T17:45:47.402Z,4.33
2023-04-27T17:48:13.826Z,4.40
2023-04-27T17:50:40.992Z,4.87
2023-04-27T17:53:07.438Z,5.27
2023-04-27T17:55:33.861Z,5.50
2023-04-27T17:58:00.358Z,5.70
2023-04-27T18:00:27.127Z,5.83
2023-04-27T18:02:53.790Z,6.80
2023-04-27T18:05:20.367Z,5.90
2023-04-27T18:07:46.844Z,6.47
2023-04-27T18:10:13.472Z,4.13
2023-04-27T18:12:39.889Z,4.17
2023-04-27T18:15:09.358Z,3.97
2023-04-27T18:17:36.380Z,5.20
2023-04-27T18:20:09.636Z,4.63
2023-04-27T18:22:38.449Z,3.77
2023-04-27T18:25:05.461Z,5.50
2023-04-27T18:27:32.887Z,4.27
2023-04-27T18:29:59.455Z,5.23
2023-04-27T18:32:25.956Z,7.40
2023-04-27T18:34:52.407Z,5.67
2023-04-27T18:37:33.339Z,6.43
2023-04-27T18:40:02.883Z,6.33
2023-04-27T18:42:29.533Z,8.37
2023-04-27T18:44:59.929Z,4.27
2023-04-27T18:47:27.407Z,5.87
2023-04-27T18:50:12.586Z,5.53
2023-04-27T18:52:43.588Z,6.53
2023-04-27T18:55:16.888Z,7.80
2023-04-27T18:57:43.399Z,4.80
2023-04-27T19:00:11.558Z,5.80
2023-04-27T19:02:38.091Z,5.53
2023-04-27T19:05:12.282Z,6.83
2023-04-27T19:07:39.719Z,10.10
2023-04-27T19:10:07.024Z,10.77
2023-04-27T19:12:33.433Z,9.43
2023-04-27T19:14:59.844Z,7.93
2023-04-27T19:17:26.348Z,5.33
2023-04-27T19:19:52.884Z,4.93
2023-04-27T19:22:19.291Z,10.73
2023-04-27T19:24:45.769Z,11.60
2023-04-27T19:27:12.590Z,8.70
2023-04-27T19:29:51.682Z,6.40
2023-04-27T19:32:19.590Z,7.70
2023-04-27T19:34:46.517Z,10.77
2023-04-27T19:37:13.573Z,11.47
2023-04-27T19:39:39.938Z,9.67
2023-04-27T19:42:06.380Z,8.00
2023-04-27T19:44:32.751Z,7.50
2023-04-27T19:46:59.134Z,7.10
2023-04-27T19:49:25.577Z,7.87
2023-04-27T19:51:51.930Z,9.50
2023-04-27T19:54:18.483Z,8.03
2023-04-27T19:56:45.022Z,8.87
2023-04-27T19:59:11.378Z,9.63
2023-04-27T20:01:37.793Z,8.63
2023-04-27T20:04:04.421Z,12.37
2023-04-27T20:06:32.272Z,13.17
2023-04-27T20:08:58.675Z,14.90
2023-04-27T20:11:25.172Z,11.87
2023-04-27T20:13:54.290Z,11.93
2023-04-27T20:16:21.414Z,20.50
2023-04-27T20:18:49.645Z,11.13
2023-04-27T20:21:16.332Z,10.07
2023-04-27T20:23:42.864Z,10.10
2023-04-27T20:26:09.228Z,9.10
2023-04-27T20:28:35.649Z,9.57
2023-04-27T20:31:02.022Z,6.80
2023-04-27T20:33:28.384Z,7.60
2023-04-27T20:36:03.732Z,10.30
2023-04-27T20:38:36.837Z,8.77
2023-04-27T20:41:04.602Z,11.43
2023-04-27T20:43:31.695Z,8.23
2023-04-27T20:45:58.170Z,15.70
2023-04-27T20:48:26.791Z,8.73
2023-04-27T20:50:53.188Z,8.47
2023-04-27T20:53:19.760Z,13.13
2023-04-27T20:55:46.290Z,9.47
2023-04-27T20:58:12.654Z,11.90
2023-04-27T21:00:39.025Z,10.87
2023-04-27T21:03:06.488Z,9.63
2023-04-27T21:05:33.127Z,11.77
2023-04-27T21:07:59.501Z,10.57
2023-04-27T21:10:25.901Z,8.20
2023-04-27T21:12:52.288Z,10.23
2023-04-27T21:15:18.746Z,8.40
2023-04-27T21:17:45.526Z,11.57
2023-04-27T21:20:12.269Z,10.83
2023-04-27T21:22:38.654Z,10.37
2023-04-27T21:25:05.290Z,11.30
2023-04-27T21:27:31.678Z,18.53
2023-04-27T21:29:58.451Z,11.47
2023-04-27T21:32:24.838Z,10.80
2023-04-27T21:34:51.683Z,11.70
2023-04-27T21:37:18.028Z,11.63
2023-04-27T21:39:44.414Z,13.87
2023-04-27T21:42:10.950Z,13.63
2023-04-27T21:44:37.315Z,11.77
2023-04-27T21:47:03.688Z,11.67
2023-04-27T21:49:30.050Z,11.17
2023-04-27T21:51:56.413Z,12.13
2023-04-27T21:54:22.779Z,9.80
2023-04-27T21:56:49.191Z,11.33
2023-04-27T21:59:15.564Z,10.27
2023-04-27T22:01:42.005Z,9.67
2023-04-27T22:04:09.761Z,9.90
2023-04-27T22:06:36.238Z,8.57
2023-04-27T22:09:02.645Z,11.33
2023-04-27T22:11:29.135Z,9.17
2023-04-27T22:13:56.216Z,11.73
2023-04-27T22:16:22.695Z,9.77
2023-04-27T22:18:49.100Z,12.30
2023-04-27T22:21:15.572Z,10.43
2023-04-27T22:23:41.982Z,9.97
2023-04-27T22:26:08.970Z,12.40
2023-04-27T22:28:35.603Z,10.87
2023-04-27T22:31:02.013Z,15.57
2023-04-27T22:33:28.414Z,10.50
2023-04-27T22:35:54.784Z,13.97
2023-04-27T22:38:21.292Z,12.10
2023-04-27T22:40:47.633Z,11.70
2023-04-27T22:43:14.096Z,10.50
2023-04-27T22:45:40.454Z,11.17
2023-04-27T22:48:07.086Z,8.50
2023-04-27T22:50:33.903Z,12.67
2023-04-27T22:53:01.076Z,16.27
2023-04-27T22:55:27.475Z,14.87
2023-04-27T22:57:53.974Z,10.77
2023-04-27T23:00:21.193Z,11.77
2023-04-27T23:02:47.753Z,9.37
2023-04-27T23:05:14.316Z,12.77
2023-04-27T23:07:42.903Z,9.07
2023-04-27T23:10:10.323Z,8.77
2023-04-27T23:12:37.771Z,10.93
2023-04-27T23:15:04.508Z,9.90
2023-04-27T23:17:31.187Z,11.07
2023-04-27T23:19:58.831Z,11.87
2023-04-27T23:22:25.808Z,11.23
2023-04-27T23:24:52.649Z,12.40
2023-04-27T23:27:19.824Z,12.20
2023-04-27T23:29:46.465Z,10.97
2023-04-27T23:32:12.832Z,14.20
2023-04-27T23:34:39.293Z,9.47
2023-04-27T23:37:05.657Z,10.33
2023-04-27T23:39:32.024Z,9.93
2023-04-27T23:41:58.394Z,10.17
2023-04-27T23:44:24.772Z,10.87
2023-04-27T23:46:51.311Z,8.33
2023-04-27T23:49:17.667Z,6.93
2023-04-27T23:51:44.065Z,9.13
2023-04-27T23:54:10.547Z,7.13
2023-04-27T23:56:36.983Z,10.33
2023-04-27T23:59:03.487Z,10.20
